Accueil
METAR-TAF:

METAR-TAF

Aéroports :

Harrell Field

Camden, Arkansas, États-Unis

latitude: 33-37N, longitude: 092-46W, altitude: 40 m

Observation

Le bulletin a été fait il y a 17 minutes, à 08:55 UTC
Vent 5 kt de est/sud-est avec des rafales jusqu'à 12 kt
Température 4°C
Humidité 93%
Pression 1016 hPa
Visibilité: 6.4 km
Ciel couvert à une hauteur de 500 ft
faible bruine

METAR: KCDH 230855Z AUTO 12005G12KT 4SM -DZ OVC005 04/03 A3000 RMK AO2

Heure: 03:12 (09:12 UTC)


TAF: absent

Observations et prévisions météorologiques de plus de 4000 aéroports (messages METAR et TAF).

Les stations disponibles sont représentées par des disques jaunes et rouges sur la carte.

Passer la souris dessus pour voir le nom de la station.

Cliquer dessus pour voir les observations et prévisions météorologiques.

Pour changer de carte: cliquez sur les boutons verts avec une croix noire pour zoomer, sur le bouton vert avec un tiret pour effectuer un zoom arrière, ou sur les flèches vertes pour les cartes adjacentes.


METAR-TAF: